Viljujsk, Russia
Current Conditions -  °F | °C
As of 5:00 PM on Monday 20 Oct 2014 (Local Time) from UEEE Reporting Station
Broken Clouds Broken Clouds  
Wind Chill: -2°   Ceiling: 10000
Heat Index: 10°   Visibility: 6mi
Dew Point:   Wind: 9mph
Humidity: 79%   Direction: 280°W
Pressure: 29.47"   Gusts: NA
Location:  63.76°N, 121.62°E
Report Text: UEEE 200800Z 28004MPS 9999 SCT040 BKN100 M12/M15 Q0998 NOSIGRMK QFE740 23490150
Loading
Personal Weather Stations






























Interactive Weather Map
Tropical Storm Tracking
New forecast layout! Learn more

10-Day Weather Forecast

Advertisements
Track Severe Weather on mobile